Time;durP1;ratioP1;P1;durP2;ratioP2;P2;SDS_P1;SDS_P2;PMS_P1;PMS_P2;Temp;Humidity;BMP_temperature;BMP_pressure;BME280_temperature;BME280_humidity;BME280_pressure;Samples;Min_cycle;Max_cycle;Signal;HPM_P1;HPM_P2
2022/05/16 00:00:45;;;;;;;3.93;2.77;;;13.90;99.90;;;-141.84;54.58;18875.00;5070880;28;20217;-63
2022/05/16 00:03:13;;;;;;;4.60;2.30;;;13.80;99.90;;;-141.84;54.81;18875.00;5071029;28;20248;-63
2022/05/16 00:05:41;;;;;;;4.68;2.70;;;13.80;99.90;;;-141.84;54.64;18887.19;5070808;28;20346;-63
2022/05/16 00:08:10;;;;;;;2.93;2.30;;;13.80;99.90;;;-141.84;54.64;18860.78;5070885;28;20246;-63
2022/05/16 00:10:38;;;;;;;4.53;2.33;;;13.80;99.90;;;-141.84;55.10;18850.63;5071354;28;20231;-63
2022/05/16 00:13:06;;;;;;;5.17;2.80;;;13.70;99.90;;;-141.84;55.01;18834.38;5070961;28;20340;-63
2022/05/16 00:15:35;;;;;;;5.07;2.50;;;13.70;99.90;;;-141.84;55.33;18858.75;5070605;28;20750;-62
2022/05/16 00:18:06;;;;;;;3.37;2.60;;;13.60;99.90;;;-141.84;55.02;18858.75;5070628;28;20316;-63
2022/05/16 00:20:35;;;;;;;4.07;2.40;;;13.60;99.90;;;-141.84;55.07;18866.88;5070429;28;20228;-63
2022/05/16 00:23:03;;;;;;;3.73;2.80;;;13.60;99.90;;;-141.84;55.12;18846.56;5070689;28;20205;-63
2022/05/16 00:25:31;;;;;;;5.80;2.73;;;13.60;99.90;;;-141.84;55.24;18866.88;5071310;28;20236;-63
2022/05/16 00:27:59;;;;;;;3.87;2.43;;;13.60;99.90;;;-141.84;55.09;18854.69;5070980;28;20478;-62
2022/05/16 00:30:27;;;;;;;2.77;2.40;;;13.50;99.90;;;-141.84;55.57;18830.31;5070570;28;20252;-62
2022/05/16 00:32:55;;;;;;;4.33;2.47;;;13.50;99.90;;;-141.84;55.32;18818.09;5070587;28;20224;-63
2022/05/16 00:35:24;;;;;;;4.97;2.50;;;13.50;99.90;;;-141.84;55.94;18820.16;5070364;28;20964;-62
2022/05/16 00:37:52;;;;;;;4.27;2.37;;;13.40;99.90;;;-141.84;55.79;18834.38;5071167;28;20283;-62
2022/05/16 00:40:21;;;;;;;3.77;2.30;;;13.30;99.90;;;-141.84;55.78;18812.00;5070470;28;20236;-63
2022/05/16 00:42:49;;;;;;;3.57;2.33;;;13.30;99.90;;;-141.84;56.05;18807.94;5070382;28;20320;-63
2022/05/16 00:45:18;;;;;;;4.33;2.23;;;13.30;99.90;;;-141.84;56.01;18795.75;5070574;28;20286;-63
2022/05/16 00:47:47;;;;;;;3.07;2.20;;;13.20;99.90;;;-141.84;55.62;18840.47;5070689;28;20224;-63
2022/05/16 00:50:16;;;;;;;4.33;2.23;;;13.20;99.90;;;-141.84;55.81;18830.31;5070160;28;20308;-63
2022/05/16 00:52:50;;;;;;;2.60;2.30;;;13.20;99.90;;;-141.84;55.94;18793.72;5070537;28;20284;-63
2022/05/16 00:55:26;;;;;;;3.30;2.20;;;13.20;99.90;;;-141.84;56.27;18814.03;5070269;28;20711;-63
2022/05/16 00:57:58;;;;;;;4.50;2.40;;;13.20;99.90;;;-141.84;56.63;18777.47;5070621;28;20230;-62
2022/05/16 01:00:32;;;;;;;3.03;2.40;;;13.10;99.90;;;-141.84;56.30;18797.78;5070239;28;20311;-63
2022/05/16 01:05:50;;;;;;;3.57;2.40;;;13.10;99.90;;;-141.84;56.97;18785.59;5070147;28;20312;-63
2022/05/16 01:08:24;;;;;;;3.23;2.50;;;13.00;99.90;;;-141.84;57.06;18771.38;5070656;28;20250;-63
2022/05/16 01:10:53;;;;;;;4.00;2.20;;;13.00;99.90;;;-141.84;57.24;18785.59;5070545;28;20236;-62
2022/05/16 01:13:25;;;;;;;3.13;2.50;;;13.00;99.90;;;-141.84;57.26;18753.09;5070083;28;20315;-63
2022/05/16 01:15:54;;;;;;;4.30;2.30;;;13.00;99.90;;;-141.84;57.71;18781.53;5070090;28;20227;-63
2022/05/16 01:18:25;;;;;;;5.10;2.57;;;12.90;99.90;;;-141.84;58.23;18736.84;5070477;28;20415;-62
2022/05/16 01:21:26;;;;;;;5.93;2.70;;;12.90;99.90;;;-141.84;58.36;18722.63;5049829;28;20252;-63
2022/05/16 01:24:02;;;;;;;3.00;2.30;;;12.90;99.90;;;-141.84;58.63;18740.91;5050050;28;20701;-62
2022/05/16 01:26:33;;;;;;;5.43;2.70;;;12.80;99.90;;;-141.84;58.22;18769.34;5050071;28;20312;-64
2022/05/16 01:29:02;;;;;;;3.60;2.43;;;12.80;99.90;;;-141.84;58.28;18720.59;5050484;28;20192;-63
2022/05/16 01:31:31;;;;;;;2.50;2.30;;;12.80;99.90;;;-141.84;58.66;18742.94;5054354;28;20283;-64
2022/05/16 01:34:00;;;;;;;3.17;2.47;;;12.70;99.90;;;-141.84;58.66;18751.06;5053987;28;20229;-63
2022/05/16 01:36:29;;;;;;;5.37;2.67;;;12.80;99.90;;;-141.84;58.81;18720.59;5053862;28;20221;-63
2022/05/16 01:38:58;;;;;;;3.80;2.53;;;12.80;99.90;;;-141.84;59.22;18749.03;5053750;28;20221;-63
2022/05/16 01:41:28;;;;;;;5.27;2.70;;;12.70;99.90;;;-141.84;58.99;18761.22;5053776;28;20305;-63
2022/05/16 01:44:00;;;;;;;4.23;2.70;;;12.70;99.90;;;-141.84;58.78;18747.00;5054331;28;20209;-63
2022/05/16 01:46:34;;;;;;;5.03;2.50;;;12.70;99.90;;;-141.84;59.02;18742.94;5053636;28;20224;-63
2022/05/16 01:49:03;;;;;;;2.83;2.53;;;12.70;99.90;;;-141.84;58.87;18757.16;5052166;28;20313;-62
2022/05/16 01:51:31;;;;;;;3.77;2.60;;;12.70;99.90;;;-141.84;59.42;18704.31;5053399;28;20613;-64
2022/05/16 01:54:03;;;;;;;5.10;2.87;;;12.60;99.90;;;-141.84;59.64;18720.59;5068244;28;20308;-63
2022/05/16 01:56:32;;;;;;;4.50;3.10;;;12.60;99.90;;;-141.84;59.01;18722.63;5073806;28;20625;-63
2022/05/16 01:59:01;;;;;;;6.90;2.50;;;12.60;99.90;;;-141.84;59.30;18698.22;5073813;28;20741;-63
2022/05/16 02:01:29;;;;;;;2.87;2.57;;;12.50;99.90;;;-141.84;59.30;18712.47;5074160;28;20637;-62
2022/05/16 02:03:58;;;;;;;4.53;2.80;;;12.50;99.90;;;-141.84;58.70;18722.63;5073196;28;20228;-63
2022/05/16 02:06:25;;;;;;;4.60;2.90;;;12.60;99.90;;;-141.84;58.47;18718.56;5053501;28;20229;-63
2022/05/16 02:08:54;;;;;;;3.27;2.70;;;12.50;99.90;;;-141.84;58.38;18736.84;5053512;28;20626;-63
2022/05/16 02:11:24;;;;;;;4.60;3.10;;;12.50;99.90;;;-141.84;58.54;18738.88;5056620;28;20252;-63
2022/05/16 02:13:52;;;;;;;3.20;2.70;;;12.50;99.90;;;-141.84;58.90;18702.28;5073812;28;20311;-62
2022/05/16 02:16:20;;;;;;;6.67;3.23;;;12.50;99.90;;;-141.84;59.03;18710.44;5072971;28;20270;-63
2022/05/16 02:18:48;;;;;;;3.27;2.73;;;12.50;99.90;;;-141.84;58.70;18718.56;5073151;28;20228;-63
2022/05/16 02:26:50;;;;;;;4.87;3.23;;;12.40;99.90;;;-141.84;58.61;18716.53;5072861;28;20634;-63
2022/05/16 02:29:19;;;;;;;4.57;3.17;;;12.40;99.90;;;-141.84;58.63;18714.50;5073283;28;20303;-64
2022/05/16 02:31:49;;;;;;;4.27;2.70;;;12.40;99.90;;;-141.84;59.06;18688.06;5073256;28;20224;-64
2022/05/16 02:34:17;;;;;;;5.47;3.13;;;12.30;99.90;;;-141.84;59.69;18694.16;5072500;28;20224;-63
2022/05/16 02:36:45;;;;;;;6.30;3.20;;;12.30;99.90;;;-141.84;59.94;18686.03;5072764;28;20757;-63
2022/05/16 02:39:16;;;;;;;3.40;3.10;;;12.20;99.90;;;-141.84;59.10;18712.47;5072770;28;20307;-62
2022/05/16 02:41:45;;;;;;;4.53;3.13;;;12.30;99.90;;;-141.84;59.46;18702.28;5071766;28;20231;-63
2022/05/16 02:44:14;;;;;;;5.20;3.37;;;12.30;99.90;;;-141.84;59.98;18686.03;5072723;28;20193;-64
2022/05/16 02:46:43;;;;;;;3.80;3.33;;;12.20;99.90;;;-141.84;59.46;18686.03;5073164;28;20201;-62
2022/05/16 02:49:12;;;;;;;4.97;3.33;;;12.10;99.90;;;-141.84;59.60;18692.13;5072769;28;20229;-63
2022/05/16 02:51:40;;;;;;;3.33;3.00;;;12.10;99.90;;;-141.84;59.43;18726.69;5072369;28;20358;-63
2022/05/16 02:54:09;;;;;;;4.67;3.10;;;12.10;99.90;;;-141.84;59.46;18690.09;5071870;28;20239;-62
2022/05/16 02:56:37;;;;;;;3.47;2.97;;;12.10;99.90;;;-141.84;60.15;18702.28;5072314;28;20229;-63
2022/05/16 02:59:05;;;;;;;4.00;3.00;;;12.10;99.90;;;-141.84;59.55;18679.94;5072691;28;20292;-63
2022/05/16 03:01:35;;;;;;;4.70;2.80;;;12.10;99.90;;;-141.84;59.33;18724.66;5072733;28;20771;-63
2022/05/16 03:04:04;;;;;;;3.90;3.00;;;12.10;99.90;;;-141.84;59.94;18704.31;5072058;28;20235;-62
2022/05/16 03:06:32;;;;;;;4.93;3.10;;;12.10;99.90;;;-141.84;59.80;18686.03;5072103;28;20303;-62
2022/05/16 03:09:01;;;;;;;8.47;3.30;;;12.00;99.90;;;-141.84;59.49;18704.31;5071869;28;20225;-64
2022/05/16 03:11:29;;;;;;;5.93;3.40;;;12.10;99.90;;;-141.84;58.73;18690.09;5072125;28;20235;-62
2022/05/16 03:13:57;;;;;;;4.73;3.10;;;12.10;99.90;;;-141.84;59.48;18718.56;5072232;28;20204;-62
2022/05/16 03:16:26;;;;;;;5.67;3.00;;;12.10;99.90;;;-141.84;59.87;18712.47;5072699;28;20292;-62
2022/05/16 03:18:55;;;;;;;4.53;2.63;;;12.00;99.90;;;-141.84;59.87;18659.63;5072048;28;20216;-63
2022/05/16 03:21:24;;;;;;;3.43;3.13;;;12.00;99.90;;;-141.84;59.51;18667.75;5071817;28;20225;-62
2022/05/16 03:23:52;;;;;;;4.00;2.70;;;12.00;99.90;;;-141.84;59.10;18673.84;5071487;28;20259;-62
2022/05/16 03:26:20;;;;;;;3.23;2.80;;;12.10;99.90;;;-141.84;58.68;18738.88;5071314;28;20603;-62
2022/05/16 03:28:48;;;;;;;3.77;2.93;;;12.10;99.90;;;-141.84;59.05;18686.03;5072150;28;20255;-52
2022/05/16 03:31:16;;;;;;;5.33;2.80;;;12.10;99.90;;;-141.84;59.48;18669.78;5071328;28;20228;-52
2022/05/16 03:33:45;;;;;;;3.40;2.80;;;12.00;99.90;;;-141.84;59.31;18700.25;5071252;28;20488;-55
2022/05/16 03:36:14;;;;;;;3.40;3.10;;;12.00;99.90;;;-141.84;59.00;18694.16;5071115;28;20228;-54
2022/05/16 03:41:27;;;;;;;4.53;3.30;;;12.10;99.90;;;-141.84;58.68;18681.97;5070990;28;20708;-54
2022/05/16 03:43:55;;;;;;;3.90;2.93;;;12.20;99.90;;;-141.84;59.12;18614.94;5071608;28;20197;-53
2022/05/16 03:46:24;;;;;;;4.10;3.57;;;12.10;99.90;;;-141.84;59.39;18679.94;5071281;28;20677;-54
2022/05/16 03:48:52;;;;;;;5.23;3.33;;;12.10;99.90;;;-141.84;59.42;18708.41;5071215;28;20726;-53
2022/05/16 03:51:21;;;;;;;4.10;3.03;;;12.10;99.90;;;-141.84;59.48;18665.72;5070849;28;20238;-55
2022/05/16 03:53:49;;;;;;;3.00;2.70;;;12.10;99.90;;;-141.84;59.22;18671.81;5070246;28;20267;-63
2022/05/16 03:56:20;;;;;;;4.73;2.87;;;12.20;99.90;;;-141.84;59.93;18663.69;5071172;28;20232;-54
2022/05/16 03:58:48;;;;;;;4.03;3.00;;;12.10;99.90;;;-141.84;59.04;18688.06;5071701;28;20272;-54
2022/05/16 04:01:17;;;;;;;6.37;2.73;;;12.10;99.90;;;-141.84;59.81;18673.84;5070481;28;20228;-53
2022/05/16 04:03:46;;;;;;;5.50;3.10;;;12.10;99.90;;;-141.84;59.67;18714.50;5070612;28;20229;-54
2022/05/16 04:06:14;;;;;;;3.20;2.90;;;12.20;99.90;;;-141.84;60.01;18665.72;5070706;28;20339;-54
2022/05/16 04:08:45;;;;;;;3.37;3.07;;;12.20;99.90;;;-141.84;59.72;18673.84;5071386;28;20311;-54
2022/05/16 04:11:16;;;;;;;3.73;3.00;;;12.20;99.90;;;-141.84;59.90;18667.75;5070899;28;20275;-55
2022/05/16 04:13:45;;;;;;;5.07;2.90;;;12.30;99.90;;;-141.84;59.87;18684.00;5071135;28;20204;-55
2022/05/16 04:16:13;;;;;;;3.60;3.30;;;12.30;99.90;;;-141.84;59.97;18688.06;5070548;28;20248;-53
2022/05/16 04:18:44;;;;;;;4.37;3.10;;;12.30;99.90;;;-141.84;60.19;18688.06;5071077;28;20225;-55
2022/05/16 04:21:13;;;;;;;7.47;3.50;;;12.30;99.90;;;-141.84;59.18;18690.09;5070501;28;20704;-51
2022/05/16 04:23:42;;;;;;;4.70;3.27;;;12.40;99.90;;;-141.84;59.30;18696.19;5070762;28;20227;-53
2022/05/16 04:26:10;;;;;;;4.47;3.13;;;12.40;99.90;;;-141.84;59.31;18710.44;5070355;28;20531;-54
2022/05/16 04:28:39;;;;;;;5.83;3.10;;;12.50;99.90;;;-141.84;59.06;18730.75;5071694;28;20601;-54
2022/05/16 04:31:07;;;;;;;7.50;3.20;;;12.60;99.90;;;-141.84;59.26;18704.31;5070561;28;20228;-55
2022/05/16 04:33:35;;;;;;;3.73;2.73;;;12.60;99.90;;;-141.84;58.86;18742.94;5071133;28;20628;-56
2022/05/16 04:36:03;;;;;;;4.37;3.40;;;12.70;99.90;;;-141.84;59.08;18740.91;5070380;28;20234;-56
2022/05/16 04:38:31;;;;;;;3.97;3.17;;;12.80;99.90;;;-141.84;58.75;18720.59;5070677;28;20620;-56
2022/05/16 04:43:49;;;;;;;4.10;3.20;;;12.90;99.90;;;-141.84;57.69;18734.81;5071242;28;20275;-51
2022/05/16 04:46:17;;;;;;;4.90;3.37;;;13.10;99.90;;;-141.84;57.63;18773.41;5070280;28;20249;-53
2022/05/16 04:48:44;;;;;;;5.03;3.20;;;13.20;99.90;;;-141.84;57.22;18789.66;5071190;28;20239;-52
2022/05/16 04:51:13;;;;;;;4.00;3.20;;;13.30;99.90;;;-141.84;55.97;18830.31;5070412;28;20240;-55
2022/05/16 04:53:41;;;;;;;7.97;3.50;;;13.50;99.90;;;-141.84;51.97;18986.75;5070364;28;20311;-55
2022/05/16 04:56:11;;;;;;;4.77;3.10;;;14.50;99.90;;;-141.84;46.36;19275.31;5070080;28;20565;-54
2022/05/16 04:58:39;;;;;;;4.40;3.08;;;15.80;99.90;;;-141.84;41.32;19598.41;5071135;28;20204;-55
2022/05/16 05:01:08;;;;;;;6.07;2.80;;;17.40;99.90;;;-141.84;38.34;19821.97;5070012;28;20307;-56
2022/05/16 05:03:36;;;;;;;4.75;2.90;;;18.80;99.90;;;-141.84;36.07;20006.91;5070339;28;20250;-57
2022/05/16 05:06:05;;;;;;;5.75;3.33;;;19.90;99.90;;;-141.84;35.03;20116.66;5069631;28;20311;-54
2022/05/16 05:08:33;;;;;;;5.03;2.83;;;20.70;99.90;;;-141.84;34.17;20169.53;5070572;28;20301;-54
2022/05/16 05:16:36;;;;;;;8.15;3.15;;;21.50;99.90;;;-141.84;33.75;20254.88;5069877;28;20765;-57
2022/05/16 05:19:04;;;;;;;6.28;3.42;;;21.60;99.90;;;-141.84;33.88;20202.03;5070120;28;20243;-55
2022/05/16 05:21:32;;;;;;;4.38;3.33;;;21.70;99.90;;;-141.84;35.31;20065.84;5069871;28;20303;-52
2022/05/16 05:24:01;;;;;;;5.25;3.35;;;20.90;99.90;;;-141.84;37.22;19876.84;5069762;28;20224;-55
2022/05/16 05:26:29;;;;;;;5.35;3.38;;;20.20;99.90;;;-141.84;38.96;19708.16;5069746;28;20320;-54
2022/05/16 05:28:58;;;;;;;5.80;3.55;;;19.60;99.90;;;-141.84;40.67;19602.47;5070471;28;20208;-58
2022/05/16 05:31:26;;;;;;;8.20;3.40;;;19.20;99.90;;;-141.84;41.80;19541.50;5069987;28;20800;-53
2022/05/16 05:33:55;;;;;;;5.85;3.58;;;18.80;99.90;;;-141.84;42.75;19490.72;5069573;28;20224;-55
2022/05/16 05:36:25;;;;;;;11.18;4.15;;;18.50;99.90;;;-141.84;43.05;19456.16;5069424;28;20228;-55
2022/05/16 05:38:53;;;;;;;8.98;4.38;;;18.40;99.90;;;-141.84;44.12;19413.47;5069719;28;20278;-56
2022/05/16 05:41:24;;;;;;;7.80;3.70;;;18.20;99.90;;;-141.84;43.90;19401.28;5069604;28;20303;-56
2022/05/16 05:43:51;;;;;;;12.93;4.82;;;18.10;99.90;;;-141.84;44.89;19348.47;5070538;28;20185;-54
2022/05/16 05:46:21;;;;;;;11.57;4.40;;;18.00;99.90;;;-141.84;44.46;19366.75;5069373;28;20723;-56
2022/05/16 05:48:50;;;;;;;13.13;5.13;;;18.10;99.90;;;-141.84;44.17;19421.63;5070173;28;20315;-53
2022/05/16 05:51:18;;;;;;;7.25;4.15;;;18.10;99.90;;;-141.84;44.65;19364.72;5069458;28;20229;-54
2022/05/16 05:53:46;;;;;;;6.72;3.95;;;18.10;99.90;;;-141.84;44.49;19387.06;5069095;28;20738;-54
2022/05/16 05:56:15;;;;;;;8.63;3.85;;;18.10;99.90;;;-141.84;44.53;19443.97;5069220;28;20201;-56
2022/05/16 05:58:43;;;;;;;5.35;3.30;;;18.30;99.90;;;-141.84;43.94;19437.88;5070161;28;20236;-54
2022/05/16 06:01:11;;;;;;;6.75;3.67;;;18.40;99.90;;;-141.84;43.66;19472.41;5069675;28;20240;-55
2022/05/16 06:03:41;;;;;;;7.60;3.38;;;18.60;99.90;;;-141.84;43.30;19466.31;5069788;28;20225;-57
2022/05/16 06:06:09;;;;;;;7.93;3.17;;;18.70;99.90;;;-141.84;43.11;19484.59;5069063;28;20248;-55
2022/05/16 06:08:37;;;;;;;4.40;3.35;;;18.90;99.90;;;-141.84;42.32;19525.25;5069308;28;20315;-56
2022/05/16 06:11:05;;;;;;;4.55;2.95;;;19.10;99.90;;;-141.84;42.13;19531.34;5069434;28;20296;-56
2022/05/16 06:13:33;;;;;;;5.18;3.30;;;19.20;99.90;;;-141.84;42.07;19582.16;5069941;28;20274;-55
2022/05/16 06:16:01;;;;;;;7.03;3.42;;;19.40;99.90;;;-141.84;41.60;19632.97;5069120;28;20244;-52
2022/05/16 06:18:29;;;;;;;7.60;3.45;;;19.60;99.90;;;-141.84;40.91;19639.06;5072378;28;20224;-57
2022/05/16 06:20:59;;;;;;;5.78;3.20;;;19.70;99.90;;;-141.84;40.43;19653.28;5072839;28;20307;-55
2022/05/16 06:23:27;;;;;;;6.18;3.40;;;19.60;99.90;;;-141.84;40.54;19635.00;5072318;28;20256;-56
2022/05/16 06:25:57;;;;;;;6.05;3.20;;;19.70;99.90;;;-141.84;41.07;19632.97;5072853;28;20201;-56
2022/05/16 06:28:34;;;;;;;6.80;3.00;;;19.80;99.90;;;-141.84;40.35;19661.41;5072463;28;20216;-56
2022/05/16 06:31:02;;;;;;;5.28;3.17;;;19.80;99.90;;;-141.84;40.73;19661.41;5072896;28;20238;-55
2022/05/16 06:33:30;;;;;;;6.72;3.30;;;19.90;99.90;;;-141.84;40.42;19695.97;5072421;28;20419;-58
2022/05/16 06:36:03;;;;;;;5.07;3.42;;;20.00;99.90;;;-141.84;39.80;19724.41;5072251;28;20248;-56
2022/05/16 06:38:35;;;;;;;7.65;3.63;;;20.10;99.90;;;-141.84;40.25;19675.63;5072057;28;20311;-56
2022/05/16 06:41:04;;;;;;;5.68;3.25;;;20.00;99.90;;;-141.84;40.80;19630.94;5072833;28;20268;-54
2022/05/16 06:43:34;;;;;;;6.82;3.40;;;19.80;99.90;;;-141.84;41.58;19553.72;5072920;28;20287;-55
2022/05/16 06:46:03;;;;;;;5.43;3.38;;;19.50;99.90;;;-141.84;41.94;19557.78;5072483;28;20307;-55
2022/05/16 06:48:31;;;;;;;7.30;3.22;;;19.40;99.90;;;-141.84;42.60;19492.75;5072269;28;20228;-55
2022/05/16 06:51:01;;;;;;;6.65;3.28;;;19.20;99.90;;;-141.84;43.04;19484.59;5072307;28;20248;-55
2022/05/16 06:53:32;;;;;;;7.28;3.22;;;19.20;99.90;;;-141.84;43.09;19496.81;5071367;28;20320;-54
2022/05/16 06:56:01;;;;;;;4.10;2.83;;;19.10;99.90;;;-141.84;43.23;19519.16;5071802;28;20551;-54
2022/05/16 06:58:29;;;;;;;5.70;2.78;;;19.10;99.90;;;-141.84;43.15;19500.88;5072433;28;20299;-54
2022/05/16 07:00:58;;;;;;;10.00;3.13;;;19.20;99.90;;;-141.84;42.87;19582.16;5072837;28;20578;-53
2022/05/16 07:03:26;;;;;;;4.22;3.30;;;19.30;99.90;;;-141.84;42.22;19588.25;5071854;28;20864;-56
2022/05/16 07:05:55;;;;;;;7.18;3.25;;;19.50;99.90;;;-141.84;41.77;19588.25;5067417;28;20300;-56
2022/05/16 07:08:24;;;;;;;5.70;3.00;;;19.60;99.90;;;-141.84;42.22;19561.84;5071879;28;20224;-50
2022/05/16 07:10:53;;;;;;;6.45;3.10;;;19.60;99.90;;;-141.84;42.04;19551.69;5072970;28;20237;-57
2022/05/16 07:13:23;;;;;;;6.38;3.30;;;19.60;99.90;;;-141.84;42.80;19594.34;5071734;28;20216;-54
2022/05/16 07:15:52;;;;;;;5.05;3.20;;;19.60;99.90;;;-141.84;42.94;19576.06;5071697;28;20319;-54
2022/05/16 07:18:20;;;;;;;5.00;3.25;;;19.60;99.90;;;-141.84;42.83;19527.28;5071860;28;20274;-54
2022/05/16 07:20:48;;;;;;;5.03;3.35;;;19.50;99.90;;;-141.84;42.58;19504.94;5071071;28;20685;-55
2022/05/16 07:23:16;;;;;;;7.00;3.20;;;19.50;99.90;;;-141.84;43.02;19549.63;5071099;28;20299;-53
2022/05/16 07:28:31;;;;;;;4.82;2.95;;;19.50;99.90;;;-141.84;43.24;19572.00;5071812;28;20684;-55
2022/05/16 07:30:59;;;;;;;5.80;3.17;;;19.50;99.90;;;-141.84;42.75;19519.16;5072176;28;20306;-56
2022/05/16 07:33:28;;;;;;;5.85;3.22;;;19.60;99.90;;;-141.84;42.68;19549.63;5071452;28;20308;-53
2022/05/16 07:35:56;;;;;;;6.65;2.95;;;19.60;99.90;;;-141.84;43.23;19569.97;5071378;28;20452;-55
2022/05/16 07:38:26;;;;;;;7.53;3.10;;;19.60;99.90;;;-141.84;43.16;19523.22;5071510;28;20299;-55
2022/05/16 07:40:56;;;;;;;6.78;3.08;;;19.60;99.90;;;-141.84;43.18;19531.34;5071732;28;20638;-52
2022/05/16 07:43:27;;;;;;;9.77;3.30;;;19.60;99.90;;;-141.84;42.71;19594.34;5072037;28;20720;-56
2022/05/16 07:45:55;;;;;;;8.88;3.15;;;19.70;99.90;;;-141.84;42.97;19547.59;5071504;28;20316;-54
2022/05/16 07:48:23;;;;;;;8.18;3.42;;;19.70;99.90;;;-141.84;43.23;19561.84;5071041;28;20224;-54
2022/05/16 07:50:51;;;;;;;7.40;3.28;;;19.70;99.90;;;-141.84;42.95;19578.09;5071286;28;20235;-55
2022/05/16 07:53:19;;;;;;;6.07;3.00;;;19.80;99.90;;;-141.84;42.56;19602.47;5070257;28;20714;-54
2022/05/16 07:55:52;;;;;;;6.97;3.45;;;19.80;99.90;;;-141.84;42.90;19602.47;5071784;28;20256;-56
2022/05/16 07:58:22;;;;;;;5.97;2.80;;;19.90;99.90;;;-141.84;42.40;19565.91;5071098;28;20231;-55
2022/05/16 08:00:55;;;;;;;5.95;2.88;;;19.90;99.90;;;-141.84;42.65;19588.25;5071657;28;20230;-55
2022/05/16 08:03:26;;;;;;;5.88;2.97;;;20.00;99.90;;;-141.84;42.11;19626.88;5071045;28;20726;-55
2022/05/16 08:05:55;;;;;;;5.55;3.22;;;20.10;99.90;;;-141.84;41.76;19651.25;5070971;28;20345;-53
2022/05/16 08:11:11;;;;;;;5.75;3.33;;;20.20;99.90;;;-141.84;42.40;19635.00;5071175;28;20185;-54
2022/05/16 08:13:42;;;;;;;6.00;3.08;;;20.20;99.90;;;-141.84;42.28;19653.28;5071252;28;20284;-55
2022/05/16 08:16:12;;;;;;;7.50;3.08;;;20.20;99.90;;;-141.84;42.53;19602.47;5070170;28;20311;-55
2022/05/16 08:18:41;;;;;;;5.60;3.33;;;20.20;99.90;;;-141.84;42.08;19635.00;5070408;28;20225;-54
2022/05/16 08:21:11;;;;;;;6.18;3.20;;;20.30;99.90;;;-141.84;41.72;19635.00;5070601;28;20232;-55
2022/05/16 08:23:41;;;;;;;7.50;3.30;;;20.30;99.90;;;-141.84;41.63;19661.41;5070273;28;20251;-53
2022/05/16 08:26:09;;;;;;;7.57;3.25;;;20.30;99.90;;;-141.84;42.00;19645.16;5070342;28;20670;-54
2022/05/16 08:28:38;;;;;;;6.53;3.10;;;20.40;99.90;;;-141.84;41.09;19647.19;5070966;28;20218;-55
2022/05/16 08:31:08;;;;;;;6.50;3.33;;;20.40;99.90;;;-141.84;41.93;19639.06;5071093;28;20298;-54
2022/05/16 08:33:39;;;;;;;6.82;3.25;;;20.40;99.90;;;-141.84;41.46;19679.72;5070535;28;20239;-55
2022/05/16 08:41:52;;;;;;;7.90;3.63;;;20.70;99.90;;;-141.84;40.45;19700.03;5070156;28;20255;-56
2022/05/16 08:44:27;;;;;;;6.03;3.15;;;20.80;99.90;;;-141.84;41.25;19736.59;5069847;28;20323;-54
2022/05/16 08:47:40;;;;;;;7.13;3.30;;;20.80;99.90;;;-141.84;40.63;19720.34;5070737;28;20299;-52
2022/05/16 08:50:14;;;;;;;4.95;3.33;;;20.90;99.90;;;-141.84;40.72;19736.59;5069947;28;20224;-56
2022/05/16 08:52:52;;;;;;;6.68;3.50;;;21.00;99.90;;;-141.84;40.99;19720.34;5070658;28;20618;-55
2022/05/16 08:55:33;;;;;;;5.72;3.53;;;21.10;99.90;;;-141.84;40.97;19720.34;5070129;28;20319;-55
2022/05/16 08:58:10;;;;;;;7.07;3.30;;;21.20;99.90;;;-141.84;41.05;19742.72;5070046;28;20220;-51
2022/05/16 09:00:47;;;;;;;5.30;3.42;;;21.30;99.90;;;-141.84;40.64;19785.38;5070417;28;20221;-55
2022/05/16 09:03:24;;;;;;;4.63;3.15;;;21.40;99.90;;;-141.84;40.54;19799.63;5070127;28;20223;-55
2022/05/16 09:06:01;;;;;;;9.43;3.30;;;21.40;99.90;;;-141.84;41.17;19771.16;5069778;28;20783;-56
2022/05/16 09:08:47;;;;;;;5.80;3.63;;;21.50;99.90;;;-141.84;41.05;19765.06;5069738;28;20664;-54
2022/05/16 09:11:24;;;;;;;6.68;3.40;;;21.60;99.90;;;-141.84;40.62;19765.06;5070224;28;20187;-57
2022/05/16 09:13:57;;;;;;;6.50;3.00;;;21.50;99.90;;;-141.84;41.10;19809.78;5070914;28;20184;-56
2022/05/16 09:16:41;;;;;;;6.32;3.30;;;21.60;99.90;;;-141.84;41.21;19787.41;5069791;28;20299;-56
2022/05/16 09:19:44;;;;;;;4.70;3.13;;;21.70;99.90;;;-141.84;40.37;19789.44;5069838;28;20715;-55
2022/05/16 09:22:22;;;;;;;4.72;3.20;;;21.80;99.90;;;-141.84;40.21;19878.88;5070088;28;20303;-55
2022/05/16 09:24:58;;;;;;;5.95;3.45;;;21.90;99.90;;;-141.84;40.36;19824.00;5069580;28;20228;-55
2022/05/16 09:30:22;;;;;;;6.60;3.55;;;22.00;99.90;;;-141.84;40.91;19805.72;5069961;28;20315;-56
2022/05/16 09:32:57;;;;;;;7.03;3.83;;;22.10;99.90;;;-141.84;40.47;19842.28;5069363;28;20647;-54
2022/05/16 09:35:39;;;;;;;6.85;3.60;;;22.20;99.90;;;-141.84;40.42;19842.28;5069360;28;20711;-58
2022/05/16 09:38:07;;;;;;;4.68;3.20;;;22.20;99.90;;;-141.84;40.73;19834.16;5069800;28;20398;-54
2022/05/16 09:40:38;;;;;;;8.75;4.18;;;22.30;99.90;;;-141.84;39.88;19917.50;5070188;28;20477;-56
2022/05/16 09:43:08;;;;;;;5.18;3.50;;;22.40;99.90;;;-141.84;40.45;19860.59;5069570;28;20225;-56
2022/05/16 09:45:37;;;;;;;9.00;3.65;;;22.40;99.90;;;-141.84;39.88;19903.25;5069522;28;20232;-56
2022/05/16 09:48:18;;;;;;;5.40;3.67;;;22.50;99.90;;;-141.84;39.74;19891.06;5069589;28;20734;-57
2022/05/16 09:51:00;;;;;;;7.97;3.33;;;22.60;99.90;;;-141.84;39.70;19925.63;5070582;28;20221;-54
2022/05/16 09:53:34;;;;;;;6.15;3.38;;;22.60;99.90;;;-141.84;39.94;19913.44;5073114;28;20224;-53
2022/05/16 09:56:09;;;;;;;6.95;3.60;;;22.50;99.90;;;-141.84;39.26;19911.41;5073340;28;20261;-56
2022/05/16 09:58:50;;;;;;;5.70;3.30;;;22.60;99.90;;;-141.84;40.07;19903.25;5074157;28;20550;-54
2022/05/16 10:01:34;;;;;;;6.63;3.33;;;22.60;99.90;;;-141.84;40.21;19917.50;5073504;28;20228;-56
2022/05/16 10:04:13;;;;;;;6.45;3.30;;;22.70;99.90;;;-141.84;39.85;19966.28;5073052;28;20720;-55
2022/05/16 10:06:56;;;;;;;5.80;3.88;;;22.90;99.90;;;-141.84;38.78;19996.75;5073254;28;20289;-56
2022/05/16 10:09:31;;;;;;;4.28;3.38;;;23.00;99.90;;;-141.84;38.74;19990.66;5073166;28;20354;-56
2022/05/16 10:12:00;;;;;;;5.60;3.63;;;23.20;99.90;;;-141.84;38.07;19986.59;5073106;28;20671;-54
2022/05/16 10:14:30;;;;;;;7.07;3.90;;;23.20;99.90;;;-141.84;38.37;19982.53;5073472;28;20302;-55
2022/05/16 10:16:59;;;;;;;7.28;3.40;;;23.20;99.90;;;-141.84;38.23;20021.16;5073299;28;20228;-56
2022/05/16 10:19:31;;;;;;;6.63;3.55;;;23.20;99.90;;;-141.84;37.02;20055.69;5073596;28;20432;-54
2022/05/16 10:22:07;;;;;;;8.52;3.83;;;23.30;99.90;;;-141.84;37.00;20074.00;5073199;28;20240;-54
2022/05/16 10:24:52;;;;;;;4.35;3.35;;;23.40;99.90;;;-141.84;36.28;20114.63;5072978;28;20228;-57
2022/05/16 10:27:28;;;;;;;4.65;3.55;;;23.50;99.90;;;-141.84;35.91;20191.88;5072722;28;20287;-54
2022/05/16 10:30:00;;;;;;;4.68;3.45;;;23.70;99.90;;;-141.84;35.31;20242.69;5072913;28;20657;-56
2022/05/16 10:35:30;;;;;;;5.82;3.40;;;24.10;99.90;;;-141.84;34.75;20273.19;5072620;28;20300;-54
2022/05/16 10:38:07;;;;;;;7.22;3.55;;;24.30;99.90;;;-141.84;35.25;20295.53;5072766;28;20287;-55
2022/05/16 10:40:41;;;;;;;6.93;3.33;;;24.40;99.90;;;-141.84;34.61;20309.75;5073245;28;20283;-55
2022/05/16 10:43:40;;;;;;;6.13;3.47;;;24.50;99.90;;;-141.84;34.42;20342.28;5072786;28;20594;-55
2022/05/16 10:46:16;;;;;;;9.65;3.85;;;24.70;99.90;;;-141.84;34.47;20352.44;5072325;28;20226;-56
2022/05/16 10:48:56;;;;;;;6.32;3.55;;;24.80;99.90;;;-141.84;34.71;20350.41;5072583;28;20642;-56
2022/05/16 10:51:32;;;;;;;6.25;3.70;;;24.80;99.90;;;-141.84;34.78;20338.22;5072410;28;20236;-55
2022/05/16 10:54:06;;;;;;;6.60;3.42;;;24.80;99.90;;;-141.84;34.97;20319.94;5056889;28;20711;-53
2022/05/16 10:56:59;;;;;;;5.72;3.40;;;24.70;99.90;;;-141.84;35.31;20315.88;5052361;28;20236;-56